createdAt,value
2023-03-30T00:00:13.850Z,76.87
2023-03-30T00:01:13.832Z,76.87
2023-03-30T00:02:13.823Z,76.67
2023-03-30T00:03:13.967Z,76.67
2023-03-30T00:04:14.038Z,76.67
2023-03-30T00:05:13.970Z,76.53
2023-03-30T00:06:13.779Z,76.43
2023-03-30T00:07:13.758Z,76.53
2023-03-30T00:08:13.748Z,76.63
2023-03-30T00:09:13.782Z,76.77
2023-03-30T00:10:13.742Z,76.63
2023-03-30T00:11:13.766Z,76.73
2023-03-30T00:12:13.700Z,76.87
2023-03-30T00:13:13.698Z,76.97
2023-03-30T00:14:13.683Z,77.18
2023-03-30T00:15:13.689Z,77.28
2023-03-30T00:16:13.753Z,77.38
2023-03-30T00:17:13.646Z,77.49
2023-03-30T00:18:13.631Z,77.69
2023-03-30T00:19:13.628Z,77.89
2023-03-30T00:20:13.673Z,77.89
2023-03-30T00:21:13.601Z,77.89
2023-03-30T00:22:13.588Z,78.00
2023-03-30T00:23:13.587Z,78.10
2023-03-30T00:24:13.564Z,78.20
2023-03-30T00:25:13.556Z,78.41
2023-03-30T00:26:13.545Z,78.51
2023-03-30T00:27:13.535Z,78.61
2023-03-30T00:28:13.532Z,78.85
2023-03-30T00:29:13.512Z,78.96
2023-03-30T00:30:13.502Z,78.82
2023-03-30T00:31:13.508Z,78.92
2023-03-30T00:32:13.510Z,79.16
2023-03-30T00:33:13.462Z,79.26
2023-03-30T00:34:13.446Z,79.16
2023-03-30T00:35:13.445Z,79.26
2023-03-30T00:36:13.475Z,79.26
2023-03-30T00:37:13.412Z,79.33
2023-03-30T00:38:13.408Z,79.43
2023-03-30T00:39:13.393Z,79.22
2023-03-30T00:40:13.384Z,79.33
2023-03-30T00:41:13.374Z,79.67
2023-03-30T00:42:13.356Z,79.77
2023-03-30T00:43:13.348Z,79.87
2023-03-30T00:44:13.338Z,80.08
2023-03-30T00:45:13.321Z,80.18
2023-03-30T00:46:13.342Z,80.18
2023-03-30T00:47:13.333Z,80.28
2023-03-30T00:48:13.286Z,80.38
2023-03-30T00:49:13.273Z,80.49
2023-03-30T00:50:13.288Z,80.49
2023-03-30T00:51:13.254Z,80.59
2023-03-30T00:52:13.248Z,80.79
2023-03-30T00:53:13.225Z,80.90
2023-03-30T00:54:13.218Z,81.14
2023-03-30T00:55:13.210Z,81.14
2023-03-30T00:56:13.192Z,81.34
2023-03-30T00:57:13.196Z,81.45
2023-03-30T00:58:13.184Z,81.55
2023-03-30T00:59:13.165Z,81.65
2023-03-30T01:00:13.157Z,81.86
2023-03-30T01:01:13.171Z,82.06
2023-03-30T01:02:13.239Z,81.96
2023-03-30T01:03:13.375Z,81.86
2023-03-30T01:04:13.101Z,81.75
2023-03-30T01:05:13.094Z,81.75
2023-03-30T01:06:13.084Z,81.61
2023-03-30T01:07:13.076Z,81.51
2023-03-30T01:08:13.064Z,81.41
2023-03-30T01:09:13.051Z,81.31
2023-03-30T01:10:13.039Z,81.00
2023-03-30T01:11:13.026Z,80.90
2023-03-30T01:12:13.011Z,80.90
2023-03-30T01:13:12.997Z,80.90
2023-03-30T01:14:12.985Z,80.79
2023-03-30T01:15:12.975Z,80.90
2023-03-30T01:16:13.030Z,81.00
2023-03-30T01:17:12.959Z,81.00
2023-03-30T01:18:12.951Z,81.10
2023-03-30T01:19:12.960Z,81.31
2023-03-30T01:20:13.160Z,81.20
2023-03-30T01:21:12.905Z,81.20
2023-03-30T01:22:12.904Z,81.20
2023-03-30T01:23:12.890Z,81.31
2023-03-30T01:24:12.872Z,81.41
2023-03-30T01:25:12.861Z,81.61
2023-03-30T01:26:12.853Z,81.82
2023-03-30T01:27:12.880Z,81.86
2023-03-30T01:28:12.844Z,81.86
2023-03-30T01:29:12.814Z,81.65
2023-03-30T01:30:12.853Z,81.65
2023-03-30T01:31:12.844Z,81.65
2023-03-30T01:32:12.787Z,81.75
2023-03-30T01:33:12.778Z,81.86
2023-03-30T01:34:12.758Z,81.96
2023-03-30T01:35:12.838Z,82.16
2023-03-30T01:36:12.811Z,82.06
2023-03-30T01:37:12.723Z,82.16
2023-03-30T01:38:12.726Z,82.26
2023-03-30T01:39:12.704Z,82.40
2023-03-30T01:40:12.689Z,82.47
2023-03-30T01:41:12.688Z,82.47
2023-03-30T01:42:12.681Z,82.37
2023-03-30T01:43:12.670Z,82.16
2023-03-30T01:44:12.645Z,81.96
2023-03-30T01:45:12.631Z,81.86
2023-03-30T01:46:12.644Z,81.96
2023-03-30T01:47:12.612Z,82.06
2023-03-30T01:48:12.605Z,82.16
2023-03-30T01:49:12.589Z,82.26
2023-03-30T01:50:12.579Z,82.37
2023-03-30T01:51:12.591Z,82.47
2023-03-30T01:52:12.555Z,82.67
2023-03-30T01:53:12.557Z,82.92
2023-03-30T01:54:12.535Z,83.02
2023-03-30T01:55:12.515Z,83.12
2023-03-30T01:56:12.510Z,83.22
2023-03-30T01:57:12.543Z,83.02
2023-03-30T01:58:12.481Z,83.12
2023-03-30T01:59:12.474Z,83.02
2023-03-30T02:00:12.463Z,82.98
2023-03-30T02:01:12.450Z,82.88
2023-03-30T02:02:12.541Z,82.88
2023-03-30T02:03:12.491Z,82.78
2023-03-30T02:04:12.423Z,82.67
2023-03-30T02:05:12.418Z,82.67
2023-03-30T02:06:12.390Z,82.57
2023-03-30T02:07:12.405Z,82.47
2023-03-30T02:08:12.372Z,82.37
2023-03-30T02:09:12.364Z,82.47
2023-03-30T02:10:12.346Z,82.57
2023-03-30T02:11:12.333Z,82.67
2023-03-30T02:12:12.327Z,82.67
2023-03-30T02:13:12.313Z,82.78
2023-03-30T02:14:12.299Z,82.78
2023-03-30T02:15:12.296Z,82.78
2023-03-30T02:16:12.285Z,82.78
2023-03-30T02:17:12.284Z,82.78
2023-03-30T02:18:12.255Z,82.78
2023-03-30T02:19:12.261Z,82.78
2023-03-30T02:20:12.242Z,82.88
2023-03-30T02:21:12.219Z,82.98
2023-03-30T02:22:12.212Z,82.88
2023-03-30T02:23:12.231Z,82.88
2023-03-30T02:24:12.187Z,82.67
2023-03-30T02:25:12.182Z,82.78
2023-03-30T02:26:12.174Z,82.88
2023-03-30T02:27:12.154Z,82.98
2023-03-30T02:28:12.139Z,82.88
2023-03-30T02:29:12.138Z,82.88
2023-03-30T02:30:12.118Z,82.88
2023-03-30T02:31:12.152Z,82.88
2023-03-30T02:32:12.105Z,82.98
2023-03-30T02:33:12.119Z,83.08
2023-03-30T02:34:12.079Z,83.08
2023-03-30T02:35:12.073Z,83.19
2023-03-30T02:36:12.082Z,83.29
2023-03-30T02:37:12.037Z,83.49
2023-03-30T02:38:12.032Z,83.39
2023-03-30T02:39:14.467Z,83.29
2023-03-30T02:40:12.003Z,83.19
2023-03-30T02:41:11.995Z,83.08
2023-03-30T02:42:11.981Z,83.19
2023-03-30T02:43:11.982Z,83.19
2023-03-30T02:44:11.960Z,83.19
2023-03-30T02:45:11.960Z,83.19
2023-03-30T02:46:11.967Z,83.08
2023-03-30T02:47:11.925Z,83.08
2023-03-30T02:48:11.920Z,83.33
2023-03-30T02:49:11.901Z,83.33
2023-03-30T02:50:11.900Z,83.33
2023-03-30T02:51:11.887Z,83.33
2023-03-30T02:52:11.876Z,83.29
2023-03-30T02:53:11.856Z,83.33
2023-03-30T02:54:11.846Z,83.43
2023-03-30T02:55:11.859Z,83.43
2023-03-30T02:56:11.829Z,83.43
2023-03-30T02:57:11.961Z,83.53
2023-03-30T02:58:11.802Z,83.63
2023-03-30T02:59:11.791Z,83.63
2023-03-30T03:00:11.779Z,83.63
2023-03-30T03:01:11.802Z,83.74
2023-03-30T03:02:11.809Z,83.74
2023-03-30T03:03:11.795Z,83.63
2023-03-30T03:04:11.749Z,83.74
2023-03-30T03:05:11.738Z,83.63
2023-03-30T03:06:11.713Z,83.63
2023-03-30T03:07:11.700Z,83.84
2023-03-30T03:08:11.687Z,83.94
2023-03-30T03:09:11.692Z,84.14
2023-03-30T03:10:11.674Z,84.25
2023-03-30T03:11:11.676Z,84.14
2023-03-30T03:12:11.650Z,84.25
2023-03-30T03:13:11.641Z,84.25
2023-03-30T03:14:11.620Z,84.25
2023-03-30T03:15:11.618Z,84.35
2023-03-30T03:16:11.604Z,84.35
2023-03-30T03:17:11.630Z,84.35
2023-03-30T03:18:11.578Z,84.46
2023-03-30T03:19:11.573Z,84.46
2023-03-30T03:20:11.562Z,84.46
2023-03-30T03:21:11.563Z,84.35
2023-03-30T03:22:11.537Z,84.35
2023-03-30T03:23:11.520Z,84.35
2023-03-30T03:24:11.507Z,84.25
2023-03-30T03:25:11.493Z,84.21
2023-03-30T03:26:11.508Z,84.14
2023-03-30T03:27:11.507Z,84.25
2023-03-30T03:28:11.457Z,84.46
2023-03-30T03:29:11.449Z,84.46
2023-03-30T03:30:11.440Z,84.55
2023-03-30T03:31:11.516Z,84.55
2023-03-30T03:32:11.419Z,84.66
2023-03-30T03:33:11.414Z,84.70
2023-03-30T03:34:11.393Z,84.80
2023-03-30T03:35:11.387Z,84.90
2023-03-30T03:36:11.379Z,85.00
2023-03-30T03:37:11.360Z,85.11
2023-03-30T03:38:11.343Z,85.21
2023-03-30T03:39:11.343Z,85.31
2023-03-30T03:40:11.332Z,85.21
2023-03-30T03:41:11.318Z,85.21
2023-03-30T03:42:11.307Z,85.21
2023-03-30T03:43:11.324Z,85.31
2023-03-30T03:44:11.276Z,85.31
2023-03-30T03:45:11.271Z,85.27
2023-03-30T03:46:11.306Z,85.21
2023-03-30T03:47:11.246Z,85.27
2023-03-30T03:48:11.233Z,85.07
2023-03-30T03:49:11.225Z,84.96
2023-03-30T03:50:11.209Z,85.07
2023-03-30T03:51:11.281Z,84.96
2023-03-30T03:52:11.200Z,84.86
2023-03-30T03:53:11.181Z,84.76
2023-03-30T03:54:11.162Z,84.76
2023-03-30T03:55:11.151Z,84.86
2023-03-30T03:56:11.141Z,84.96
2023-03-30T03:57:11.172Z,84.96
2023-03-30T03:58:11.116Z,84.86
2023-03-30T03:59:11.135Z,84.76
2023-03-30T04:00:11.094Z,84.66
2023-03-30T04:01:11.135Z,84.55
2023-03-30T04:02:11.108Z,84.46
2023-03-30T04:03:11.129Z,84.55
2023-03-30T04:04:11.077Z,84.66
2023-03-30T04:05:11.073Z,84.86
2023-03-30T04:06:11.029Z,84.76
2023-03-30T04:07:11.016Z,84.76
2023-03-30T04:08:11.163Z,84.66
2023-03-30T04:09:10.999Z,84.76
2023-03-30T04:10:10.983Z,84.66
2023-03-30T04:11:10.971Z,84.66
2023-03-30T04:12:10.962Z,84.66
2023-03-30T04:13:10.951Z,84.76
2023-03-30T04:14:10.941Z,84.86
2023-03-30T04:15:10.954Z,84.86
2023-03-30T04:16:10.966Z,84.76
2023-03-30T04:17:10.903Z,84.86
2023-03-30T04:18:10.910Z,84.86
2023-03-30T04:19:10.888Z,84.86
2023-03-30T04:20:10.873Z,84.96
2023-03-30T04:21:10.861Z,85.07
2023-03-30T04:22:10.847Z,85.07
2023-03-30T04:23:10.842Z,85.07
2023-03-30T04:24:10.825Z,85.07
2023-03-30T04:25:10.813Z,85.07
2023-03-30T04:26:10.808Z,85.07
2023-03-30T04:27:10.790Z,85.07
2023-03-30T04:28:10.780Z,85.07
2023-03-30T04:29:10.768Z,85.17
2023-03-30T04:30:10.777Z,85.07
2023-03-30T04:31:10.826Z,85.07
2023-03-30T04:32:10.783Z,84.86
2023-03-30T04:33:10.808Z,84.86
2023-03-30T04:34:10.719Z,84.76
2023-03-30T04:35:12.700Z,84.66
2023-03-30T04:36:12.718Z,84.76
2023-03-30T04:37:12.680Z,84.76
2023-03-30T04:38:10.683Z,84.76
2023-03-30T04:39:10.660Z,84.86
2023-03-30T04:40:10.648Z,84.76
2023-03-30T04:41:10.665Z,84.76
2023-03-30T04:42:10.628Z,84.76
2023-03-30T04:43:10.621Z,84.86
2023-03-30T04:44:10.626Z,84.96
2023-03-30T04:45:10.587Z,84.86
2023-03-30T04:46:10.614Z,84.86
2023-03-30T04:47:10.595Z,85.07
2023-03-30T04:48:10.632Z,85.07
2023-03-30T04:49:10.547Z,85.17
2023-03-30T04:50:10.614Z,85.17
2023-03-30T04:51:10.528Z,85.17
2023-03-30T04:52:10.525Z,85.07
2023-03-30T04:53:10.513Z,85.17
2023-03-30T04:54:10.504Z,85.17
2023-03-30T04:55:10.476Z,85.17
2023-03-30T04:56:12.473Z,85.27
2023-03-30T04:57:12.494Z,85.17
2023-03-30T04:58:10.445Z,85.07
2023-03-30T04:59:10.435Z,84.86
2023-03-30T05:00:10.463Z,84.76
2023-03-30T05:01:10.461Z,84.76
2023-03-30T05:02:10.418Z,84.86
2023-03-30T05:03:10.591Z,85.07
2023-03-30T05:04:10.386Z,85.17
2023-03-30T05:05:10.377Z,85.27
2023-03-30T05:06:10.354Z,85.38
2023-03-30T05:07:10.345Z,85.47
2023-03-30T05:08:12.330Z,85.52
2023-03-30T05:09:10.324Z,85.62
2023-03-30T05:10:10.325Z,85.72
2023-03-30T05:11:10.308Z,85.62
2023-03-30T05:12:10.315Z,85.68
2023-03-30T05:13:10.572Z,85.47
2023-03-30T05:14:10.267Z,85.47
2023-03-30T05:15:10.266Z,85.38
2023-03-30T05:16:10.245Z,85.38
2023-03-30T05:17:10.337Z,85.38
2023-03-30T05:18:10.295Z,85.07
2023-03-30T05:19:10.258Z,84.93
2023-03-30T05:20:10.200Z,84.82
2023-03-30T05:21:10.195Z,84.72
2023-03-30T05:22:10.178Z,84.62
2023-03-30T05:23:10.168Z,84.52
2023-03-30T05:24:10.152Z,84.21
2023-03-30T05:25:10.176Z,84.11
2023-03-30T05:26:10.206Z,84.11
2023-03-30T05:27:10.126Z,83.70
2023-03-30T05:28:10.115Z,83.80
2023-03-30T05:29:10.119Z,83.80
2023-03-30T05:30:10.088Z,83.59
2023-03-30T05:31:10.097Z,83.59
2023-03-30T05:32:10.078Z,83.70
2023-03-30T05:33:10.199Z,83.80
2023-03-30T05:34:10.048Z,83.66
2023-03-30T05:35:10.085Z,83.45
2023-03-30T05:36:10.078Z,83.15
2023-03-30T05:37:10.009Z,82.84
2023-03-30T05:38:09.992Z,82.84
2023-03-30T05:39:09.989Z,82.74
2023-03-30T05:40:09.972Z,82.74
2023-03-30T05:41:09.966Z,82.88
2023-03-30T05:42:09.956Z,82.98
2023-03-30T05:43:09.954Z,82.98
2023-03-30T05:44:09.929Z,82.98
2023-03-30T05:45:09.916Z,83.08
2023-03-30T05:46:10.004Z,83.19
2023-03-30T05:47:09.892Z,83.19
2023-03-30T05:48:09.884Z,83.19
2023-03-30T05:49:09.871Z,83.29
2023-03-30T05:50:09.869Z,83.29
2023-03-30T05:51:09.878Z,83.29
2023-03-30T05:52:09.844Z,83.39
2023-03-30T05:53:09.830Z,83.49
2023-03-30T05:54:09.812Z,83.59
2023-03-30T05:55:09.804Z,83.59
2023-03-30T05:56:09.793Z,83.59
2023-03-30T05:57:09.790Z,83.49
2023-03-30T05:58:09.771Z,83.49
2023-03-30T05:59:09.771Z,83.49
2023-03-30T06:00:09.754Z,83.49
2023-03-30T06:01:09.745Z,83.49
2023-03-30T06:02:10.913Z,83.39
2023-03-30T06:03:09.790Z,83.19
2023-03-30T06:04:09.769Z,83.29
2023-03-30T06:05:09.689Z,83.29
2023-03-30T06:06:09.702Z,83.29
2023-03-30T06:07:09.694Z,83.29
2023-03-30T06:08:09.671Z,83.25
2023-03-30T06:09:09.650Z,83.15
2023-03-30T06:10:09.637Z,82.84
2023-03-30T06:11:09.632Z,82.74
2023-03-30T06:12:09.698Z,82.53
2023-03-30T06:13:09.611Z,82.23
2023-03-30T06:14:09.586Z,82.12
2023-03-30T06:15:09.590Z,82.02
2023-03-30T06:16:09.638Z,82.02
2023-03-30T06:17:09.553Z,82.12
2023-03-30T06:18:09.600Z,82.23
2023-03-30T06:19:09.536Z,81.98
2023-03-30T06:20:09.527Z,81.78
2023-03-30T06:21:09.513Z,81.88
2023-03-30T06:22:09.522Z,81.78
2023-03-30T06:23:09.518Z,81.88
2023-03-30T06:24:09.484Z,81.64
2023-03-30T06:25:09.472Z,81.43
2023-03-30T06:26:09.466Z,81.23
2023-03-30T06:27:09.446Z,81.09
2023-03-30T06:28:09.430Z,80.99
2023-03-30T06:29:09.421Z,80.58
2023-03-30T06:30:09.402Z,80.07
2023-03-30T06:31:09.495Z,80.07
2023-03-30T06:32:09.629Z,79.76
2023-03-30T06:33:09.422Z,79.56
2023-03-30T06:34:09.359Z,79.25
2023-03-30T06:35:09.349Z,79.21
2023-03-30T06:36:09.363Z,79.42
2023-03-30T06:37:09.343Z,79.42
2023-03-30T06:38:09.313Z,79.11
2023-03-30T06:39:09.339Z,79.32
2023-03-30T06:40:09.295Z,79.42
2023-03-30T06:41:09.281Z,79.32
2023-03-30T06:42:09.268Z,79.21
2023-03-30T06:43:09.365Z,79.11
2023-03-30T06:44:09.246Z,78.77
2023-03-30T06:45:09.517Z,78.57
2023-03-30T06:46:09.297Z,78.57
2023-03-30T06:47:09.213Z,78.60
2023-03-30T06:48:09.306Z,78.71
2023-03-30T06:49:09.212Z,78.91
2023-03-30T06:50:09.183Z,78.91
2023-03-30T06:51:09.163Z,79.11
2023-03-30T06:52:09.281Z,79.11
2023-03-30T06:53:09.221Z,79.32
2023-03-30T06:54:09.129Z,79.46
2023-03-30T06:55:09.151Z,79.76
2023-03-30T06:56:09.106Z,79.62
2023-03-30T06:57:09.130Z,79.42
2023-03-30T06:58:09.088Z,79.21
2023-03-30T06:59:09.072Z,79.32
2023-03-30T07:00:09.060Z,79.42
2023-03-30T07:01:09.096Z,79.52
2023-03-30T07:02:09.045Z,79.52
2023-03-30T07:03:09.101Z,79.76
2023-03-30T07:04:09.074Z,80.07
2023-03-30T07:05:09.006Z,79.93
2023-03-30T07:06:08.988Z,79.73
2023-03-30T07:07:08.994Z,79.21
2023-03-30T07:08:08.966Z,78.97
2023-03-30T07:09:08.962Z,78.77
2023-03-30T07:10:08.955Z,78.53
2023-03-30T07:11:08.967Z,78.43
2023-03-30T07:12:08.929Z,78.43
2023-03-30T07:13:08.913Z,78.08
2023-03-30T07:14:08.939Z,77.33
2023-03-30T07:15:09.185Z,76.75
2023-03-30T07:16:08.877Z,75.60
2023-03-30T07:17:08.938Z,74.41
2023-03-30T07:18:08.893Z,72.78
2023-03-30T07:19:09.001Z,71.09
2023-03-30T07:20:08.833Z,68.90
2023-03-30T07:21:08.822Z,67.92
2023-03-30T07:22:08.809Z,66.44
2023-03-30T07:23:08.815Z,66.10
2023-03-30T07:24:08.786Z,67.14
2023-03-30T07:25:08.777Z,68.06
2023-03-30T07:26:08.764Z,67.55
2023-03-30T07:27:08.786Z,67.34
2023-03-30T07:28:08.749Z,66.91
2023-03-30T07:29:08.731Z,66.47
2023-03-30T07:30:20.755Z,66.07
2023-03-30T07:31:08.962Z,65.49
2023-03-30T07:32:08.791Z,68.22
2023-03-30T07:33:08.783Z,68.69
2023-03-30T07:34:08.678Z,67.21
2023-03-30T07:35:08.665Z,66.37
2023-03-30T07:36:08.819Z,65.39
2023-03-30T07:37:08.640Z,65.36
2023-03-30T07:38:08.635Z,66.17
2023-03-30T07:39:08.627Z,65.93
2023-03-30T07:40:08.626Z,64.79
2023-03-30T07:41:08.601Z,64.39
2023-03-30T07:42:08.582Z,65.19
2023-03-30T07:43:08.600Z,64.59
2023-03-30T07:44:08.565Z,65.53
2023-03-30T07:45:08.547Z,65.56
2023-03-30T07:46:08.578Z,65.22
2023-03-30T07:47:08.525Z,65.56
2023-03-30T07:48:08.598Z,66.66
2023-03-30T07:49:08.516Z,67.68
2023-03-30T07:50:08.491Z,68.18
2023-03-30T07:51:08.479Z,67.85
2023-03-30T07:52:08.473Z,67.51
2023-03-30T07:53:08.455Z,66.10
2023-03-30T07:54:08.455Z,64.96
2023-03-30T07:55:08.437Z,63.95
2023-03-30T07:56:08.425Z,64.33
2023-03-30T07:57:08.450Z,63.92
2023-03-30T07:58:08.401Z,63.95
2023-03-30T07:59:08.423Z,64.36
2023-03-30T08:00:08.383Z,64.45
2023-03-30T08:01:08.372Z,64.33
2023-03-30T08:02:08.373Z,63.15
2023-03-30T08:03:08.465Z,63.23
2023-03-30T08:04:08.499Z,61.56
2023-03-30T08:05:08.418Z,60.08
2023-03-30T08:06:08.312Z,60.16
2023-03-30T08:07:08.305Z,59.50
2023-03-30T08:08:08.291Z,58.67
2023-03-30T08:09:08.276Z,57.56
2023-03-30T08:10:08.284Z,57.33
2023-03-30T08:11:08.263Z,56.96
2023-03-30T08:12:08.241Z,57.39
2023-03-30T08:13:08.235Z,58.09
2023-03-30T08:14:08.223Z,57.99
2023-03-30T08:15:08.237Z,57.56
2023-03-30T08:16:08.250Z,57.73
2023-03-30T08:17:08.189Z,56.25
2023-03-30T08:18:08.441Z,55.37
2023-03-30T08:19:08.177Z,55.37
2023-03-30T08:20:08.156Z,55.60
2023-03-30T08:21:08.151Z,56.43
2023-03-30T08:22:08.147Z,56.73
2023-03-30T08:23:08.116Z,56.07
2023-03-30T08:24:08.110Z,54.65
2023-03-30T08:25:08.136Z,55.12
2023-03-30T08:26:08.097Z,53.99
2023-03-30T08:27:08.133Z,53.54
2023-03-30T08:28:08.073Z,53.61
2023-03-30T08:29:08.053Z,52.81
2023-03-30T08:30:08.048Z,52.27
2023-03-30T08:31:08.292Z,51.49
2023-03-30T08:32:08.283Z,52.19
2023-03-30T08:33:08.078Z,51.59
2023-03-30T08:34:07.998Z,51.86
2023-03-30T08:35:07.986Z,51.54
2023-03-30T08:36:08.011Z,51.26
2023-03-30T08:37:07.961Z,51.39
2023-03-30T08:38:07.951Z,51.61
2023-03-30T08:39:07.940Z,51.79
2023-03-30T08:40:07.933Z,51.14
2023-03-30T08:41:07.930Z,50.29
2023-03-30T08:42:07.945Z,50.09
2023-03-30T08:43:07.905Z,50.26
2023-03-30T08:44:07.881Z,50.74
2023-03-30T08:45:07.898Z,49.70
2023-03-30T08:46:07.984Z,49.92
2023-03-30T08:47:07.888Z,50.46
2023-03-30T08:48:07.898Z,51.31
2023-03-30T08:49:07.827Z,52.02
2023-03-30T08:50:07.865Z,51.51
2023-03-30T08:51:07.837Z,51.17
2023-03-30T08:52:07.817Z,50.42
2023-03-30T08:53:07.862Z,49.67
2023-03-30T08:54:07.791Z,48.69
2023-03-30T08:55:07.805Z,49.99
2023-03-30T08:56:07.789Z,51.96
2023-03-30T08:57:07.792Z,52.99
2023-03-30T08:58:07.768Z,54.32
2023-03-30T08:59:07.758Z,54.54
2023-03-30T09:00:07.702Z,54.15
2023-03-30T09:01:08.051Z,54.44
2023-03-30T09:02:07.724Z,54.67
2023-03-30T09:03:07.735Z,54.49
2023-03-30T09:04:07.663Z,55.43
2023-03-30T09:05:07.783Z,55.45
2023-03-30T09:06:07.641Z,56.08
2023-03-30T09:07:07.631Z,55.75
2023-03-30T09:08:07.626Z,56.61
2023-03-30T09:09:07.603Z,56.58
2023-03-30T09:10:07.602Z,56.08
2023-03-30T09:11:07.612Z,56.08
2023-03-30T09:12:07.582Z,56.18
2023-03-30T09:13:07.581Z,56.61
2023-03-30T09:14:07.562Z,57.11
2023-03-30T09:15:07.535Z,57.44
2023-03-30T09:16:07.638Z,57.75
2023-03-30T09:17:07.526Z,57.75
2023-03-30T09:18:07.542Z,57.64
2023-03-30T09:19:07.521Z,57.75
2023-03-30T09:20:07.486Z,57.89
2023-03-30T09:21:07.710Z,55.93
2023-03-30T09:22:07.472Z,56.06
2023-03-30T09:23:07.456Z,56.81
2023-03-30T09:24:07.449Z,57.09
2023-03-30T09:25:07.431Z,56.35
2023-03-30T09:26:07.436Z,56.26
2023-03-30T09:27:07.410Z,56.46
2023-03-30T09:28:07.402Z,56.06
2023-03-30T09:29:07.381Z,56.13
2023-03-30T09:30:07.371Z,56.23
2023-03-30T09:31:07.632Z,56.10
2023-03-30T09:32:07.365Z,55.90
2023-03-30T09:33:07.370Z,55.80
2023-03-30T09:34:09.551Z,55.20
2023-03-30T09:35:07.360Z,55.40
2023-03-30T09:36:07.527Z,55.50
2023-03-30T09:37:07.303Z,55.50
2023-03-30T09:38:07.294Z,55.73
2023-03-30T09:39:07.272Z,56.15
2023-03-30T09:40:07.261Z,56.26
2023-03-30T09:41:07.287Z,56.26
2023-03-30T09:42:07.239Z,56.78
2023-03-30T09:43:07.226Z,57.11
2023-03-30T09:44:07.217Z,57.42
2023-03-30T09:45:07.232Z,57.39
2023-03-30T09:46:07.781Z,57.49
2023-03-30T09:47:07.183Z,57.72
2023-03-30T09:48:07.202Z,57.72
2023-03-30T09:49:07.167Z,57.72
2023-03-30T09:50:07.151Z,58.02
2023-03-30T09:51:07.164Z,58.14
2023-03-30T09:52:07.154Z,58.55
2023-03-30T09:53:07.186Z,58.25
2023-03-30T09:54:07.108Z,58.34
2023-03-30T09:55:07.103Z,58.25
2023-03-30T09:56:07.217Z,58.14
2023-03-30T09:57:07.110Z,58.02
2023-03-30T09:58:07.063Z,57.92
2023-03-30T09:59:07.245Z,58.52
2023-03-30T10:00:07.070Z,57.69
2023-03-30T10:01:07.089Z,57.59
2023-03-30T10:02:09.426Z,58.12
2023-03-30T10:03:07.163Z,58.25
2023-03-30T10:04:07.394Z,58.98
2023-03-30T10:05:07.060Z,59.61
2023-03-30T10:06:07.232Z,59.82
2023-03-30T10:07:18.063Z,59.91
2023-03-30T10:08:06.955Z,60.02
2023-03-30T10:09:06.970Z,60.04
2023-03-30T10:10:06.931Z,60.57
2023-03-30T10:11:07.069Z,61.08
2023-03-30T10:12:06.974Z,60.68
2023-03-30T10:13:06.920Z,61.18
2023-03-30T10:14:06.885Z,61.48
2023-03-30T10:15:06.875Z,61.38
2023-03-30T10:16:07.254Z,61.61
2023-03-30T10:17:06.857Z,62.32
2023-03-30T10:18:06.869Z,62.12
2023-03-30T10:19:06.834Z,62.32
2023-03-30T10:20:13.513Z,62.12
2023-03-30T10:21:06.813Z,62.21
2023-03-30T10:22:06.798Z,62.32
2023-03-30T10:23:06.813Z,62.52
2023-03-30T10:24:06.781Z,62.72
2023-03-30T10:25:09.475Z,62.21
2023-03-30T10:26:06.951Z,62.42
2023-03-30T10:27:06.740Z,62.72
2023-03-30T10:28:06.729Z,62.52
2023-03-30T10:29:06.717Z,62.42
2023-03-30T10:30:06.733Z,62.42
2023-03-30T10:31:06.718Z,62.21
2023-03-30T10:32:06.784Z,62.62
2023-03-30T10:33:06.793Z,62.85
2023-03-30T10:34:06.678Z,62.85
2023-03-30T10:35:06.656Z,62.85
2023-03-30T10:36:07.001Z,62.75
2023-03-30T10:37:06.653Z,62.95
2023-03-30T10:38:06.612Z,63.06
2023-03-30T10:39:06.630Z,63.06
2023-03-30T10:40:06.591Z,63.12
2023-03-30T10:41:06.755Z,63.23
2023-03-30T10:42:06.667Z,62.09
2023-03-30T10:43:06.559Z,62.16
2023-03-30T10:44:06.545Z,61.56
2023-03-30T10:45:06.543Z,61.45
2023-03-30T10:46:18.402Z,61.35
2023-03-30T10:47:06.546Z,61.56
2023-03-30T10:48:06.549Z,61.65
2023-03-30T10:49:06.487Z,61.99
2023-03-30T10:50:06.516Z,62.19
2023-03-30T10:51:06.555Z,62.29
2023-03-30T10:52:06.523Z,62.29
2023-03-30T10:53:06.466Z,62.39
2023-03-30T10:54:06.439Z,62.26
2023-03-30T10:55:06.458Z,61.73
2023-03-30T10:56:06.609Z,60.79
2023-03-30T10:57:06.423Z,60.06
2023-03-30T10:58:06.419Z,60.49
2023-03-30T10:59:06.374Z,60.82
2023-03-30T11:00:06.383Z,60.69
2023-03-30T11:01:06.412Z,60.13
2023-03-30T11:02:06.389Z,59.10
2023-03-30T11:03:06.450Z,58.67
2023-03-30T11:04:20.481Z,58.03
2023-03-30T11:05:06.307Z,57.73
2023-03-30T11:06:06.641Z,57.84
2023-03-30T11:07:06.342Z,57.81
2023-03-30T11:08:06.477Z,57.40
2023-03-30T11:09:06.274Z,57.51
2023-03-30T11:10:06.278Z,57.94
2023-03-30T11:11:06.298Z,58.56
2023-03-30T11:12:06.340Z,58.44
2023-03-30T11:13:06.232Z,58.56
2023-03-30T11:14:06.418Z,58.56
2023-03-30T11:15:06.199Z,58.77
2023-03-30T11:16:06.465Z,59.00
2023-03-30T11:17:06.266Z,59.40
2023-03-30T11:18:06.197Z,59.63
2023-03-30T11:19:06.232Z,59.60
2023-03-30T11:20:06.160Z,59.60
2023-03-30T11:21:06.143Z,59.40
2023-03-30T11:22:06.178Z,59.17
2023-03-30T11:23:06.115Z,58.97
2023-03-30T11:24:06.103Z,58.97
2023-03-30T11:25:06.085Z,58.97
2023-03-30T11:26:06.296Z,59.10
2023-03-30T11:27:06.099Z,59.30
2023-03-30T11:28:06.049Z,59.37
2023-03-30T11:29:06.042Z,58.94
2023-03-30T11:30:06.030Z,58.51
2023-03-30T11:31:06.020Z,58.31
2023-03-30T11:32:06.073Z,58.31
2023-03-30T11:33:06.069Z,57.81
2023-03-30T11:34:05.985Z,57.84
2023-03-30T11:35:05.984Z,58.87
2023-03-30T11:36:06.113Z,59.20
2023-03-30T11:37:05.953Z,60.13
2023-03-30T11:38:05.953Z,60.43
2023-03-30T11:39:05.933Z,59.67
2023-03-30T11:40:05.929Z,58.71
2023-03-30T11:41:05.912Z,57.55
2023-03-30T11:42:05.923Z,56.52
2023-03-30T11:43:05.972Z,56.95
2023-03-30T11:44:05.876Z,57.75
2023-03-30T11:45:05.862Z,57.03
2023-03-30T11:46:06.288Z,56.29
2023-03-30T11:47:05.844Z,56.07
2023-03-30T11:48:05.877Z,55.87
2023-03-30T11:49:05.817Z,55.74
2023-03-30T11:50:05.807Z,55.19
2023-03-30T11:51:06.007Z,54.26
2023-03-30T11:52:05.924Z,54.09
2023-03-30T11:53:05.776Z,54.69
2023-03-30T11:54:05.769Z,54.06
2023-03-30T11:55:05.762Z,53.58
2023-03-30T11:56:06.003Z,52.14
2023-03-30T11:57:05.826Z,52.19
2023-03-30T11:58:06.901Z,53.69
2023-03-30T11:59:05.750Z,55.57
2023-03-30T12:00:05.702Z,56.82
2023-03-30T12:01:05.887Z,57.75
2023-03-30T12:02:05.689Z,57.95
2023-03-30T12:03:05.791Z,57.95
2023-03-30T12:04:05.706Z,57.60
2023-03-30T12:05:05.691Z,56.37
2023-03-30T12:06:05.830Z,56.14
2023-03-30T12:07:05.623Z,56.17
2023-03-30T12:08:05.617Z,56.74
2023-03-30T12:09:05.598Z,54.86
2023-03-30T12:10:08.094Z,54.11
2023-03-30T12:11:05.796Z,53.66
2023-03-30T12:12:05.570Z,52.09
2023-03-30T12:13:05.561Z,50.97
2023-03-30T12:14:05.546Z,52.04
2023-03-30T12:15:05.663Z,53.21
2023-03-30T12:16:05.769Z,53.81
2023-03-30T12:17:05.512Z,53.28
2023-03-30T12:18:05.561Z,52.84
2023-03-30T12:19:05.494Z,52.14
2023-03-30T12:20:05.512Z,52.56
2023-03-30T12:21:05.471Z,53.83
2023-03-30T12:22:05.463Z,54.56
2023-03-30T12:23:05.450Z,54.89
2023-03-30T12:24:05.437Z,55.19
2023-03-30T12:25:05.426Z,55.21
2023-03-30T12:26:05.610Z,55.62
2023-03-30T12:27:07.473Z,55.74
2023-03-30T12:28:05.405Z,55.81
2023-03-30T12:29:44.369Z,55.41
2023-03-30T12:30:05.367Z,55.01
2023-03-30T12:31:05.443Z,54.82
2023-03-30T12:32:05.577Z,55.21
2023-03-30T12:33:05.396Z,54.79
2023-03-30T12:34:05.324Z,54.44
2023-03-30T12:35:05.319Z,53.71
2023-03-30T12:36:05.554Z,53.61
2023-03-30T12:37:05.302Z,54.29
2023-03-30T12:38:05.280Z,55.87
2023-03-30T12:39:05.274Z,56.59
2023-03-30T12:40:05.265Z,56.95
2023-03-30T12:41:05.254Z,57.35
2023-03-30T12:42:05.247Z,57.05
2023-03-30T12:43:05.231Z,57.58
2023-03-30T12:44:05.233Z,57.85
2023-03-30T12:46:05.485Z,55.94
2023-03-30T12:47:06.885Z,54.71
2023-03-30T12:48:05.220Z,54.74
2023-03-30T12:49:06.160Z,55.90
2023-03-30T12:50:05.172Z,56.52
2023-03-30T12:51:05.381Z,56.72
2023-03-30T12:52:05.194Z,56.92
2023-03-30T12:53:05.115Z,56.59